Altona, Indiana
Current Conditions -  °F | °C
As of 9:55 PM on Monday 20 Oct 2014 (Local Time) from KGWB Reporting Station
Overcast Overcast  
Wind Chill: 54°   Ceiling: 7000
Heat Index: 54°   Visibility: 10mi
Dew Point: 46°   Wind: 7mph
Humidity: 77%   Direction: 310°NW
Pressure: 29.91"   Gusts: NA
Location:  41.3275°N, 85.1414°W
Report Text: KGWB 210155Z AUTO 31006KT 10SM OVC070 12/08 A2991 RMK AO2
Loading
Personal Weather Stations






























Interactive Weather Map
Tropical Storm Tracking
New forecast layout! Learn more

10-Day Weather Forecast

Advertisements
Track Severe Weather on mobile